sensor_id;sensor_type;location;lat;lon;timestamp;P1;durP1;ratioP1;P2;durP2;ratioP2
9720;SDS011;4899;42.644;23.366;2023-05-23T00:01:17;15.27;;;13.87;;
9720;SDS011;4899;42.644;23.366;2023-05-23T00:03:42;17.30;;;12.83;;
9720;SDS011;4899;42.644;23.366;2023-05-23T00:06:08;14.10;;;12.70;;
9720;SDS011;4899;42.644;23.366;2023-05-23T00:08:34;12.73;;;11.47;;
9720;SDS011;4899;42.644;23.366;2023-05-23T00:10:59;10.47;;;9.50;;
9720;SDS011;4899;42.644;23.366;2023-05-23T00:13:25;9.13;;;8.20;;
9720;SDS011;4899;42.644;23.366;2023-05-23T00:15:50;8.80;;;7.97;;
9720;SDS011;4899;42.644;23.366;2023-05-23T00:18:16;9.57;;;8.30;;
9720;SDS011;4899;42.644;23.366;2023-05-23T00:20:42;9.63;;;8.63;;
9720;SDS011;4899;42.644;23.366;2023-05-23T00:23:09;10.10;;;9.20;;
9720;SDS011;4899;42.644;23.366;2023-05-23T00:25:37;10.73;;;9.70;;
9720;SDS011;4899;42.644;23.366;2023-05-23T00:28:05;11.00;;;9.93;;
9720;SDS011;4899;42.644;23.366;2023-05-23T00:30:31;11.93;;;10.70;;
9720;SDS011;4899;42.644;23.366;2023-05-23T00:32:57;12.17;;;11.03;;
9720;SDS011;4899;42.644;23.366;2023-05-23T00:35:23;12.17;;;11.07;;
9720;SDS011;4899;42.644;23.366;2023-05-23T00:37:48;11.60;;;10.47;;
9720;SDS011;4899;42.644;23.366;2023-05-23T00:40:16;11.77;;;10.67;;
9720;SDS011;4899;42.644;23.366;2023-05-23T00:42:42;11.37;;;10.33;;
9720;SDS011;4899;42.644;23.366;2023-05-23T00:45:07;10.80;;;9.57;;
9720;SDS011;4899;42.644;23.366;2023-05-23T00:47:33;12.13;;;10.93;;
9720;SDS011;4899;42.644;23.366;2023-05-23T00:49:58;7.27;;;6.63;;
9720;SDS011;4899;42.644;23.366;2023-05-23T00:52:24;7.47;;;6.77;;
9720;SDS011;4899;42.644;23.366;2023-05-23T00:54:50;7.90;;;7.10;;
9720;SDS011;4899;42.644;23.366;2023-05-23T00:57:15;7.77;;;7.07;;
9720;SDS011;4899;42.644;23.366;2023-05-23T00:59:41;7.30;;;6.57;;
9720;SDS011;4899;42.644;23.366;2023-05-23T01:02:09;9.10;;;8.20;;
9720;SDS011;4899;42.644;23.366;2023-05-23T01:04:36;8.07;;;7.37;;
9720;SDS011;4899;42.644;23.366;2023-05-23T01:07:02;8.27;;;7.47;;
9720;SDS011;4899;42.644;23.366;2023-05-23T01:09:28;8.83;;;7.63;;
9720;SDS011;4899;42.644;23.366;2023-05-23T01:14:37;8.97;;;8.17;;
9720;SDS011;4899;42.644;23.366;2023-05-23T01:20:20;10.57;;;9.43;;
9720;SDS011;4899;42.644;23.366;2023-05-23T01:28:22;7.63;;;6.93;;
9720;SDS011;4899;42.644;23.366;2023-05-23T01:30:58;8.13;;;7.43;;
9720;SDS011;4899;42.644;23.366;2023-05-23T01:33:27;8.47;;;7.67;;
9720;SDS011;4899;42.644;23.366;2023-05-23T01:35:56;8.47;;;6.80;;
9720;SDS011;4899;42.644;23.366;2023-05-23T01:38:25;7.20;;;6.53;;
9720;SDS011;4899;42.644;23.366;2023-05-23T01:40:51;7.87;;;7.07;;
9720;SDS011;4899;42.644;23.366;2023-05-23T01:43:17;7.50;;;6.80;;
9720;SDS011;4899;42.644;23.366;2023-05-23T01:45:43;6.60;;;6.10;;
9720;SDS011;4899;42.644;23.366;2023-05-23T01:48:08;7.00;;;6.40;;
9720;SDS011;4899;42.644;23.366;2023-05-23T01:50:35;7.47;;;5.90;;
9720;SDS011;4899;42.644;23.366;2023-05-23T01:53:01;9.60;;;8.70;;
9720;SDS011;4899;42.644;23.366;2023-05-23T01:55:27;10.47;;;8.93;;
9720;SDS011;4899;42.644;23.366;2023-05-23T01:57:54;9.23;;;8.33;;
9720;SDS011;4899;42.644;23.366;2023-05-23T02:00:20;11.13;;;8.77;;
9720;SDS011;4899;42.644;23.366;2023-05-23T02:02:46;9.60;;;8.70;;
9720;SDS011;4899;42.644;23.366;2023-05-23T02:05:12;10.93;;;8.87;;
9720;SDS011;4899;42.644;23.366;2023-05-23T02:07:37;12.63;;;8.77;;
9720;SDS011;4899;42.644;23.366;2023-05-23T02:10:03;9.37;;;8.47;;
9720;SDS011;4899;42.644;23.366;2023-05-23T02:12:36;9.83;;;8.40;;
9720;SDS011;4899;42.644;23.366;2023-05-23T02:15:01;10.43;;;9.33;;
9720;SDS011;4899;42.644;23.366;2023-05-23T02:17:27;10.30;;;9.33;;
9720;SDS011;4899;42.644;23.366;2023-05-23T02:19:52;10.77;;;9.77;;
9720;SDS011;4899;42.644;23.366;2023-05-23T02:22:21;10.37;;;9.47;;
9720;SDS011;4899;42.644;23.366;2023-05-23T02:24:48;12.37;;;10.40;;
9720;SDS011;4899;42.644;23.366;2023-05-23T02:27:14;11.00;;;9.93;;
9720;SDS011;4899;42.644;23.366;2023-05-23T02:29:40;11.57;;;10.47;;
9720;SDS011;4899;42.644;23.366;2023-05-23T02:32:05;11.90;;;10.70;;
9720;SDS011;4899;42.644;23.366;2023-05-23T02:34:31;11.23;;;10.13;;
9720;SDS011;4899;42.644;23.366;2023-05-23T02:36:56;11.47;;;10.10;;
9720;SDS011;4899;42.644;23.366;2023-05-23T02:39:22;10.63;;;9.53;;
9720;SDS011;4899;42.644;23.366;2023-05-23T02:41:47;10.33;;;8.30;;
9720;SDS011;4899;42.644;23.366;2023-05-23T02:44:12;8.37;;;7.60;;
9720;SDS011;4899;42.644;23.366;2023-05-23T02:46:38;8.93;;;7.37;;
9720;SDS011;4899;42.644;23.366;2023-05-23T02:49:03;8.83;;;7.77;;
9720;SDS011;4899;42.644;23.366;2023-05-23T02:51:29;13.93;;;8.10;;
9720;SDS011;4899;42.644;23.366;2023-05-23T02:53:56;8.73;;;7.70;;
9720;SDS011;4899;42.644;23.366;2023-05-23T02:56:21;9.77;;;7.67;;
9720;SDS011;4899;42.644;23.366;2023-05-23T02:58:47;8.67;;;7.53;;
9720;SDS011;4899;42.644;23.366;2023-05-23T03:01:12;7.67;;;6.97;;
9720;SDS011;4899;42.644;23.366;2023-05-23T03:03:38;8.23;;;7.37;;
9720;SDS011;4899;42.644;23.366;2023-05-23T03:06:05;8.63;;;7.77;;
9720;SDS011;4899;42.644;23.366;2023-05-23T03:08:31;7.57;;;6.70;;
9720;SDS011;4899;42.644;23.366;2023-05-23T03:10:57;13.47;;;7.50;;
9720;SDS011;4899;42.644;23.366;2023-05-23T03:13:22;8.80;;;7.80;;
9720;SDS011;4899;42.644;23.366;2023-05-23T03:15:47;7.73;;;6.93;;
9720;SDS011;4899;42.644;23.366;2023-05-23T03:18:13;10.53;;;7.70;;
9720;SDS011;4899;42.644;23.366;2023-05-23T03:20:38;9.03;;;8.23;;
9720;SDS011;4899;42.644;23.366;2023-05-23T03:23:04;9.87;;;8.47;;
9720;SDS011;4899;42.644;23.366;2023-05-23T03:25:29;11.90;;;10.20;;
9720;SDS011;4899;42.644;23.366;2023-05-23T03:27:55;9.77;;;8.80;;
9720;SDS011;4899;42.644;23.366;2023-05-23T03:30:20;11.97;;;9.07;;
9720;SDS011;4899;42.644;23.366;2023-05-23T03:32:46;11.87;;;8.07;;
9720;SDS011;4899;42.644;23.366;2023-05-23T03:35:19;9.53;;;8.63;;
9720;SDS011;4899;42.644;23.366;2023-05-23T03:37:44;9.30;;;8.43;;
9720;SDS011;4899;42.644;23.366;2023-05-23T03:40:10;10.00;;;8.77;;
9720;SDS011;4899;42.644;23.366;2023-05-23T03:42:37;9.87;;;8.93;;
9720;SDS011;4899;42.644;23.366;2023-05-23T03:45:03;12.47;;;11.33;;
9720;SDS011;4899;42.644;23.366;2023-05-23T03:47:29;11.10;;;10.00;;
9720;SDS011;4899;42.644;23.366;2023-05-23T03:49:56;13.87;;;9.73;;
9720;SDS011;4899;42.644;23.366;2023-05-23T03:52:21;9.57;;;8.63;;
9720;SDS011;4899;42.644;23.366;2023-05-23T03:54:47;12.23;;;9.60;;
9720;SDS011;4899;42.644;23.366;2023-05-23T03:57:12;7.93;;;6.97;;
9720;SDS011;4899;42.644;23.366;2023-05-23T03:59:38;8.30;;;7.50;;
9720;SDS011;4899;42.644;23.366;2023-05-23T04:02:03;7.73;;;7.13;;
9720;SDS011;4899;42.644;23.366;2023-05-23T04:04:30;8.57;;;7.73;;
9720;SDS011;4899;42.644;23.366;2023-05-23T04:06:56;6.90;;;6.30;;
9720;SDS011;4899;42.644;23.366;2023-05-23T04:09:22;7.33;;;5.60;;
9720;SDS011;4899;42.644;23.366;2023-05-23T04:11:48;17.10;;;12.67;;
9720;SDS011;4899;42.644;23.366;2023-05-23T04:14:13;15.90;;;14.17;;
9720;SDS011;4899;42.644;23.366;2023-05-23T04:16:39;30.57;;;14.83;;
9720;SDS011;4899;42.644;23.366;2023-05-23T04:19:06;22.10;;;16.27;;
9720;SDS011;4899;42.644;23.366;2023-05-23T04:21:32;53.30;;;16.93;;
9720;SDS011;4899;42.644;23.366;2023-05-23T04:23:58;33.60;;;17.10;;
9720;SDS011;4899;42.644;23.366;2023-05-23T04:26:24;18.40;;;15.67;;
9720;SDS011;4899;42.644;23.366;2023-05-23T04:28:49;19.70;;;16.37;;
9720;SDS011;4899;42.644;23.366;2023-05-23T04:31:18;16.13;;;14.40;;
9720;SDS011;4899;42.644;23.366;2023-05-23T04:33:46;13.13;;;11.73;;
9720;SDS011;4899;42.644;23.366;2023-05-23T04:36:13;15.20;;;13.13;;
9720;SDS011;4899;42.644;23.366;2023-05-23T04:38:38;14.07;;;12.67;;
9720;SDS011;4899;42.644;23.366;2023-05-23T04:41:05;13.03;;;11.03;;
9720;SDS011;4899;42.644;23.366;2023-05-23T04:43:31;11.27;;;10.07;;
9720;SDS011;4899;42.644;23.366;2023-05-23T04:46:00;12.30;;;11.10;;
9720;SDS011;4899;42.644;23.366;2023-05-23T04:48:26;9.97;;;7.60;;
9720;SDS011;4899;42.644;23.366;2023-05-23T04:50:51;7.87;;;6.20;;
9720;SDS011;4899;42.644;23.366;2023-05-23T04:53:20;8.27;;;7.47;;
9720;SDS011;4899;42.644;23.366;2023-05-23T04:55:46;8.50;;;7.00;;
9720;SDS011;4899;42.644;23.366;2023-05-23T04:58:11;8.93;;;8.13;;
9720;SDS011;4899;42.644;23.366;2023-05-23T05:00:37;16.27;;;13.50;;
9720;SDS011;4899;42.644;23.366;2023-05-23T05:03:02;18.90;;;14.07;;
9720;SDS011;4899;42.644;23.366;2023-05-23T05:05:28;18.93;;;12.90;;
9720;SDS011;4899;42.644;23.366;2023-05-23T05:07:53;15.07;;;11.10;;
9720;SDS011;4899;42.644;23.366;2023-05-23T05:10:19;10.10;;;9.10;;
9720;SDS011;4899;42.644;23.366;2023-05-23T05:12:45;14.60;;;13.10;;
9720;SDS011;4899;42.644;23.366;2023-05-23T05:15:13;13.53;;;12.23;;
9720;SDS011;4899;42.644;23.366;2023-05-23T05:17:39;12.47;;;10.67;;
9720;SDS011;4899;42.644;23.366;2023-05-23T05:20:05;11.53;;;10.33;;
9720;SDS011;4899;42.644;23.366;2023-05-23T05:22:41;13.43;;;12.13;;
9720;SDS011;4899;42.644;23.366;2023-05-23T05:25:08;15.80;;;14.20;;
9720;SDS011;4899;42.644;23.366;2023-05-23T05:27:34;23.83;;;18.83;;
9720;SDS011;4899;42.644;23.366;2023-05-23T05:30:10;27.30;;;20.67;;
9720;SDS011;4899;42.644;23.366;2023-05-23T05:32:36;20.20;;;16.30;;
9720;SDS011;4899;42.644;23.366;2023-05-23T05:35:02;24.67;;;19.80;;
9720;SDS011;4899;42.644;23.366;2023-05-23T05:37:28;25.67;;;20.00;;
9720;SDS011;4899;42.644;23.366;2023-05-23T05:39:54;26.60;;;19.60;;
9720;SDS011;4899;42.644;23.366;2023-05-23T05:42:20;30.90;;;19.90;;
9720;SDS011;4899;42.644;23.366;2023-05-23T05:44:46;26.00;;;21.00;;
9720;SDS011;4899;42.644;23.366;2023-05-23T05:47:13;22.70;;;19.57;;
9720;SDS011;4899;42.644;23.366;2023-05-23T05:49:38;21.83;;;19.37;;
9720;SDS011;4899;42.644;23.366;2023-05-23T05:52:05;23.77;;;19.87;;
9720;SDS011;4899;42.644;23.366;2023-05-23T05:54:31;20.93;;;18.37;;
9720;SDS011;4899;42.644;23.366;2023-05-23T05:56:56;21.63;;;18.77;;
9720;SDS011;4899;42.644;23.366;2023-05-23T05:59:22;21.60;;;19.00;;
9720;SDS011;4899;42.644;23.366;2023-05-23T06:01:47;23.27;;;19.50;;
9720;SDS011;4899;42.644;23.366;2023-05-23T06:04:15;19.57;;;17.40;;
9720;SDS011;4899;42.644;23.366;2023-05-23T06:06:41;19.80;;;17.73;;
9720;SDS011;4899;42.644;23.366;2023-05-23T06:09:06;17.80;;;16.07;;
9720;SDS011;4899;42.644;23.366;2023-05-23T06:11:32;17.73;;;15.77;;
9720;SDS011;4899;42.644;23.366;2023-05-23T06:13:57;18.03;;;16.30;;
9720;SDS011;4899;42.644;23.366;2023-05-23T06:16:23;17.23;;;15.37;;
9720;SDS011;4899;42.644;23.366;2023-05-23T06:18:48;18.07;;;16.17;;
9720;SDS011;4899;42.644;23.366;2023-05-23T06:21:14;19.17;;;16.17;;
9720;SDS011;4899;42.644;23.366;2023-05-23T06:23:40;18.43;;;16.63;;
9720;SDS011;4899;42.644;23.366;2023-05-23T06:26:05;18.77;;;16.80;;
9720;SDS011;4899;42.644;23.366;2023-05-23T06:28:34;18.80;;;16.80;;
9720;SDS011;4899;42.644;23.366;2023-05-23T06:31:01;18.00;;;16.00;;
9720;SDS011;4899;42.644;23.366;2023-05-23T06:33:27;20.20;;;17.57;;
9720;SDS011;4899;42.644;23.366;2023-05-23T06:35:52;22.63;;;18.27;;
9720;SDS011;4899;42.644;23.366;2023-05-23T06:38:18;22.07;;;19.60;;
9720;SDS011;4899;42.644;23.366;2023-05-23T06:40:43;23.33;;;19.40;;
9720;SDS011;4899;42.644;23.366;2023-05-23T06:43:09;21.97;;;18.93;;
9720;SDS011;4899;42.644;23.366;2023-05-23T06:45:35;20.80;;;18.70;;
9720;SDS011;4899;42.644;23.366;2023-05-23T06:48:02;18.70;;;16.77;;
9720;SDS011;4899;42.644;23.366;2023-05-23T06:50:27;21.17;;;18.87;;
9720;SDS011;4899;42.644;23.366;2023-05-23T06:52:53;23.80;;;18.43;;
9720;SDS011;4899;42.644;23.366;2023-05-23T06:55:19;20.07;;;18.17;;
9720;SDS011;4899;42.644;23.366;2023-05-23T06:57:44;19.20;;;17.33;;
9720;SDS011;4899;42.644;23.366;2023-05-23T07:00:10;21.13;;;18.37;;
9720;SDS011;4899;42.644;23.366;2023-05-23T07:02:37;21.50;;;17.53;;
9720;SDS011;4899;42.644;23.366;2023-05-23T07:05:03;22.53;;;18.10;;
9720;SDS011;4899;42.644;23.366;2023-05-23T07:07:29;18.93;;;16.93;;
9720;SDS011;4899;42.644;23.366;2023-05-23T07:09:54;20.43;;;17.93;;
9720;SDS011;4899;42.644;23.366;2023-05-23T07:12:20;17.80;;;15.93;;
9720;SDS011;4899;42.644;23.366;2023-05-23T07:14:45;17.80;;;15.97;;
9720;SDS011;4899;42.644;23.366;2023-05-23T07:17:11;17.83;;;15.90;;
9720;SDS011;4899;42.644;23.366;2023-05-23T07:19:36;18.97;;;17.00;;
9720;SDS011;4899;42.644;23.366;2023-05-23T07:22:02;19.00;;;16.57;;
9720;SDS011;4899;42.644;23.366;2023-05-23T07:24:27;20.97;;;18.67;;
9720;SDS011;4899;42.644;23.366;2023-05-23T07:26:52;18.33;;;16.30;;
9720;SDS011;4899;42.644;23.366;2023-05-23T07:29:18;22.77;;;17.40;;
9720;SDS011;4899;42.644;23.366;2023-05-23T07:31:44;22.10;;;18.40;;
9720;SDS011;4899;42.644;23.366;2023-05-23T07:34:09;19.13;;;17.10;;
9720;SDS011;4899;42.644;23.366;2023-05-23T07:36:34;20.10;;;17.47;;
9720;SDS011;4899;42.644;23.366;2023-05-23T07:39:02;21.87;;;16.17;;
9720;SDS011;4899;42.644;23.366;2023-05-23T07:41:28;19.43;;;15.83;;
9720;SDS011;4899;42.644;23.366;2023-05-23T07:43:53;19.70;;;17.40;;
9720;SDS011;4899;42.644;23.366;2023-05-23T07:46:18;19.17;;;14.53;;
9720;SDS011;4899;42.644;23.366;2023-05-23T07:48:46;18.40;;;13.80;;
9720;SDS011;4899;42.644;23.366;2023-05-23T07:51:12;16.33;;;13.63;;
9720;SDS011;4899;42.644;23.366;2023-05-23T07:53:38;16.83;;;13.13;;
9720;SDS011;4899;42.644;23.366;2023-05-23T07:56:04;18.10;;;14.03;;
9720;SDS011;4899;42.644;23.366;2023-05-23T07:58:30;19.87;;;14.07;;
9720;SDS011;4899;42.644;23.366;2023-05-23T08:00:55;19.77;;;13.60;;
9720;SDS011;4899;42.644;23.366;2023-05-23T08:03:22;14.37;;;12.87;;
9720;SDS011;4899;42.644;23.366;2023-05-23T08:05:47;14.23;;;12.27;;
9720;SDS011;4899;42.644;23.366;2023-05-23T08:08:14;13.90;;;12.27;;
9720;SDS011;4899;42.644;23.366;2023-05-23T08:10:39;18.77;;;13.27;;
9720;SDS011;4899;42.644;23.366;2023-05-23T08:13:05;15.00;;;12.00;;
9720;SDS011;4899;42.644;23.366;2023-05-23T08:15:31;14.47;;;11.77;;
9720;SDS011;4899;42.644;23.366;2023-05-23T08:17:57;14.30;;;12.77;;
9720;SDS011;4899;42.644;23.366;2023-05-23T08:20:24;13.67;;;12.37;;
9720;SDS011;4899;42.644;23.366;2023-05-23T08:22:56;12.70;;;11.50;;
9720;SDS011;4899;42.644;23.366;2023-05-23T08:25:23;14.40;;;12.30;;
9720;SDS011;4899;42.644;23.366;2023-05-23T08:27:49;12.77;;;10.77;;
9720;SDS011;4899;42.644;23.366;2023-05-23T08:30:15;12.97;;;10.60;;
9720;SDS011;4899;42.644;23.366;2023-05-23T08:32:41;12.33;;;11.03;;
9720;SDS011;4899;42.644;23.366;2023-05-23T08:35:06;12.40;;;10.90;;
9720;SDS011;4899;42.644;23.366;2023-05-23T08:37:32;13.63;;;10.70;;
9720;SDS011;4899;42.644;23.366;2023-05-23T08:39:57;14.43;;;11.37;;
9720;SDS011;4899;42.644;23.366;2023-05-23T08:42:23;10.73;;;9.50;;
9720;SDS011;4899;42.644;23.366;2023-05-23T08:44:48;9.87;;;8.97;;
9720;SDS011;4899;42.644;23.366;2023-05-23T08:47:13;11.43;;;9.80;;
9720;SDS011;4899;42.644;23.366;2023-05-23T08:49:42;12.80;;;9.87;;
9720;SDS011;4899;42.644;23.366;2023-05-23T08:52:08;10.53;;;9.13;;
9720;SDS011;4899;42.644;23.366;2023-05-23T08:54:36;11.77;;;8.10;;
9720;SDS011;4899;42.644;23.366;2023-05-23T08:57:02;8.53;;;7.70;;
9720;SDS011;4899;42.644;23.366;2023-05-23T08:59:27;10.53;;;8.77;;
9720;SDS011;4899;42.644;23.366;2023-05-23T09:01:54;10.00;;;9.03;;
9720;SDS011;4899;42.644;23.366;2023-05-23T09:04:21;10.57;;;9.00;;
9720;SDS011;4899;42.644;23.366;2023-05-23T09:06:46;10.83;;;7.67;;
9720;SDS011;4899;42.644;23.366;2023-05-23T09:09:12;7.97;;;6.90;;
9720;SDS011;4899;42.644;23.366;2023-05-23T09:11:37;6.73;;;6.17;;
9720;SDS011;4899;42.644;23.366;2023-05-23T09:14:03;11.73;;;7.43;;
9720;SDS011;4899;42.644;23.366;2023-05-23T09:16:32;7.80;;;6.33;;
9720;SDS011;4899;42.644;23.366;2023-05-23T09:18:58;6.97;;;6.07;;
9720;SDS011;4899;42.644;23.366;2023-05-23T09:21:34;7.23;;;6.10;;
9720;SDS011;4899;42.644;23.366;2023-05-23T09:24:00;4.80;;;4.33;;
9720;SDS011;4899;42.644;23.366;2023-05-23T09:26:26;10.43;;;4.73;;
9720;SDS011;4899;42.644;23.366;2023-05-23T09:28:52;7.33;;;3.50;;
9720;SDS011;4899;42.644;23.366;2023-05-23T09:31:21;4.70;;;4.10;;
9720;SDS011;4899;42.644;23.366;2023-05-23T09:33:52;4.10;;;3.70;;
9720;SDS011;4899;42.644;23.366;2023-05-23T09:36:17;5.93;;;4.20;;
9720;SDS011;4899;42.644;23.366;2023-05-23T09:38:44;6.67;;;4.00;;
9720;SDS011;4899;42.644;23.366;2023-05-23T09:41:10;4.63;;;4.07;;
9720;SDS011;4899;42.644;23.366;2023-05-23T09:43:37;6.17;;;3.80;;
9720;SDS011;4899;42.644;23.366;2023-05-23T09:46:09;5.83;;;3.70;;
9720;SDS011;4899;42.644;23.366;2023-05-23T09:48:35;5.23;;;3.50;;
9720;SDS011;4899;42.644;23.366;2023-05-23T09:51:04;4.90;;;4.17;;
9720;SDS011;4899;42.644;23.366;2023-05-23T09:53:31;4.40;;;4.10;;
9720;SDS011;4899;42.644;23.366;2023-05-23T09:55:57;6.17;;;3.57;;
9720;SDS011;4899;42.644;23.366;2023-05-23T09:58:24;5.50;;;3.50;;
9720;SDS011;4899;42.644;23.366;2023-05-23T10:00:54;4.87;;;3.97;;
9720;SDS011;4899;42.644;23.366;2023-05-23T10:03:26;4.07;;;3.37;;
9720;SDS011;4899;42.644;23.366;2023-05-23T10:06:01;4.70;;;3.80;;
9720;SDS011;4899;42.644;23.366;2023-05-23T10:08:35;6.30;;;3.77;;
9720;SDS011;4899;42.644;23.366;2023-05-23T10:13:42;4.20;;;3.50;;
9720;SDS011;4899;42.644;23.366;2023-05-23T10:18:43;5.83;;;3.33;;
9720;SDS011;4899;42.644;23.366;2023-05-23T10:21:14;7.77;;;3.30;;
9720;SDS011;4899;42.644;23.366;2023-05-23T10:23:45;6.27;;;3.23;;
9720;SDS011;4899;42.644;23.366;2023-05-23T10:26:12;6.67;;;3.80;;
9720;SDS011;4899;42.644;23.366;2023-05-23T10:28:38;6.50;;;3.33;;
9720;SDS011;4899;42.644;23.366;2023-05-23T10:31:05;4.73;;;3.60;;
9720;SDS011;4899;42.644;23.366;2023-05-23T10:33:32;3.93;;;3.50;;
9720;SDS011;4899;42.644;23.366;2023-05-23T10:36:08;5.13;;;3.57;;
9720;SDS011;4899;42.644;23.366;2023-05-23T10:38:41;6.13;;;3.20;;
9720;SDS011;4899;42.644;23.366;2023-05-23T10:41:22;2.93;;;2.60;;
9720;SDS011;4899;42.644;23.366;2023-05-23T10:44:06;4.07;;;2.83;;
9720;SDS011;4899;42.644;23.366;2023-05-23T10:46:54;3.37;;;3.07;;
9720;SDS011;4899;42.644;23.366;2023-05-23T10:49:41;4.40;;;3.17;;
9720;SDS011;4899;42.644;23.366;2023-05-23T10:52:08;3.20;;;2.90;;
9720;SDS011;4899;42.644;23.366;2023-05-23T10:54:46;5.40;;;2.73;;
9720;SDS011;4899;42.644;23.366;2023-05-23T10:57:15;3.47;;;3.10;;
9720;SDS011;4899;42.644;23.366;2023-05-23T10:59:43;3.63;;;3.33;;
9720;SDS011;4899;42.644;23.366;2023-05-23T11:02:14;3.60;;;3.30;;
9720;SDS011;4899;42.644;23.366;2023-05-23T11:04:42;3.00;;;2.80;;
9720;SDS011;4899;42.644;23.366;2023-05-23T11:10:03;5.50;;;3.38;;
9720;SDS011;4899;42.644;23.366;2023-05-23T11:12:39;3.08;;;2.80;;
9720;SDS011;4899;42.644;23.366;2023-05-23T11:15:18;6.43;;;3.05;;
9720;SDS011;4899;42.644;23.366;2023-05-23T11:17:52;5.22;;;3.28;;
9720;SDS011;4899;42.644;23.366;2023-05-23T11:20:19;4.10;;;3.38;;
9720;SDS011;4899;42.644;23.366;2023-05-23T11:22:54;3.22;;;3.00;;
9720;SDS011;4899;42.644;23.366;2023-05-23T11:25:38;2.90;;;2.55;;
9720;SDS011;4899;42.644;23.366;2023-05-23T11:28:08;3.05;;;2.75;;
9720;SDS011;4899;42.644;23.366;2023-05-23T11:30:34;3.47;;;3.10;;
9720;SDS011;4899;42.644;23.366;2023-05-23T11:33:10;5.63;;;3.28;;
9720;SDS011;4899;42.644;23.366;2023-05-23T11:35:40;3.22;;;2.85;;
9720;SDS011;4899;42.644;23.366;2023-05-23T11:38:07;3.78;;;2.78;;
9720;SDS011;4899;42.644;23.366;2023-05-23T11:40:34;4.57;;;3.08;;
9720;SDS011;4899;42.644;23.366;2023-05-23T11:43:04;3.78;;;3.13;;
9720;SDS011;4899;42.644;23.366;2023-05-23T11:45:32;4.32;;;3.60;;
9720;SDS011;4899;42.644;23.366;2023-05-23T11:48:05;4.75;;;4.35;;
9720;SDS011;4899;42.644;23.366;2023-05-23T11:50:31;3.60;;;3.30;;
9720;SDS011;4899;42.644;23.366;2023-05-23T11:52:58;4.05;;;3.00;;
9720;SDS011;4899;42.644;23.366;2023-05-23T11:55:23;4.60;;;3.60;;
9720;SDS011;4899;42.644;23.366;2023-05-23T11:57:49;4.45;;;3.85;;
9720;SDS011;4899;42.644;23.366;2023-05-23T12:00:16;7.32;;;3.00;;
9720;SDS011;4899;42.644;23.366;2023-05-23T12:02:43;2.63;;;2.42;;
9720;SDS011;4899;42.644;23.366;2023-05-23T12:05:10;4.20;;;3.80;;
9720;SDS011;4899;42.644;23.366;2023-05-23T12:07:55;6.10;;;3.65;;
9720;SDS011;4899;42.644;23.366;2023-05-23T12:10:25;7.20;;;6.55;;
9720;SDS011;4899;42.644;23.366;2023-05-23T12:12:52;5.22;;;3.30;;
9720;SDS011;4899;42.644;23.366;2023-05-23T12:15:18;3.10;;;2.78;;
9720;SDS011;4899;42.644;23.366;2023-05-23T12:17:44;3.17;;;2.95;;
9720;SDS011;4899;42.644;23.366;2023-05-23T12:20:14;3.75;;;3.05;;
9720;SDS011;4899;42.644;23.366;2023-05-23T12:22:40;3.70;;;2.83;;
9720;SDS011;4899;42.644;23.366;2023-05-23T12:25:09;4.97;;;3.00;;
9720;SDS011;4899;42.644;23.366;2023-05-23T12:27:35;3.72;;;3.10;;
9720;SDS011;4899;42.644;23.366;2023-05-23T12:30:04;3.45;;;3.15;;
9720;SDS011;4899;42.644;23.366;2023-05-23T12:32:31;3.78;;;3.45;;
9720;SDS011;4899;42.644;23.366;2023-05-23T12:34:57;5.18;;;4.78;;
9720;SDS011;4899;42.644;23.366;2023-05-23T12:37:23;3.25;;;2.97;;
9720;SDS011;4899;42.644;23.366;2023-05-23T12:39:49;3.50;;;3.20;;
9720;SDS011;4899;42.644;23.366;2023-05-23T12:42:15;3.50;;;2.80;;
9720;SDS011;4899;42.644;23.366;2023-05-23T12:44:41;3.85;;;3.55;;
9720;SDS011;4899;42.644;23.366;2023-05-23T12:47:09;3.30;;;3.05;;
9720;SDS011;4899;42.644;23.366;2023-05-23T12:49:35;3.35;;;3.15;;
9720;SDS011;4899;42.644;23.366;2023-05-23T12:52:01;3.80;;;2.88;;
9720;SDS011;4899;42.644;23.366;2023-05-23T12:54:26;4.35;;;3.40;;
9720;SDS011;4899;42.644;23.366;2023-05-23T12:56:52;4.03;;;3.25;;
9720;SDS011;4899;42.644;23.366;2023-05-23T12:59:17;4.20;;;3.80;;
9720;SDS011;4899;42.644;23.366;2023-05-23T13:01:43;4.22;;;3.10;;
9720;SDS011;4899;42.644;23.366;2023-05-23T13:04:09;4.47;;;3.35;;
9720;SDS011;4899;42.644;23.366;2023-05-23T13:06:34;4.70;;;4.30;;
9720;SDS011;4899;42.644;23.366;2023-05-23T13:08:59;11.77;;;10.68;;
9720;SDS011;4899;42.644;23.366;2023-05-23T13:11:25;3.28;;;2.80;;
9720;SDS011;4899;42.644;23.366;2023-05-23T13:13:51;5.90;;;3.53;;
9720;SDS011;4899;42.644;23.366;2023-05-23T13:16:17;3.75;;;3.45;;
9720;SDS011;4899;42.644;23.366;2023-05-23T13:18:43;4.03;;;3.70;;
9720;SDS011;4899;42.644;23.366;2023-05-23T13:21:09;3.17;;;2.85;;
9720;SDS011;4899;42.644;23.366;2023-05-23T13:23:34;3.92;;;3.08;;
9720;SDS011;4899;42.644;23.366;2023-05-23T13:26:01;3.33;;;2.83;;
9720;SDS011;4899;42.644;23.366;2023-05-23T13:28:27;3.83;;;3.13;;
9720;SDS011;4899;42.644;23.366;2023-05-23T13:30:53;5.45;;;3.67;;
9720;SDS011;4899;42.644;23.366;2023-05-23T13:33:18;3.35;;;3.05;;
9720;SDS011;4899;42.644;23.366;2023-05-23T13:35:46;6.38;;;3.20;;
9720;SDS011;4899;42.644;23.366;2023-05-23T13:38:13;5.85;;;2.95;;
9720;SDS011;4899;42.644;23.366;2023-05-23T13:40:38;4.75;;;2.78;;
9720;SDS011;4899;42.644;23.366;2023-05-23T13:43:04;3.85;;;3.38;;
9720;SDS011;4899;42.644;23.366;2023-05-23T13:45:30;4.13;;;3.05;;
9720;SDS011;4899;42.644;23.366;2023-05-23T13:47:55;4.78;;;3.10;;
9720;SDS011;4899;42.644;23.366;2023-05-23T13:50:20;3.25;;;3.05;;
9720;SDS011;4899;42.644;23.366;2023-05-23T13:52:46;7.95;;;3.65;;
9720;SDS011;4899;42.644;23.366;2023-05-23T13:55:11;4.57;;;3.55;;
9720;SDS011;4899;42.644;23.366;2023-05-23T13:57:37;3.97;;;3.58;;
9720;SDS011;4899;42.644;23.366;2023-05-23T14:00:02;2.97;;;2.72;;
9720;SDS011;4899;42.644;23.366;2023-05-23T14:02:29;4.10;;;2.88;;
9720;SDS011;4899;42.644;23.366;2023-05-23T14:04:56;2.53;;;2.33;;
9720;SDS011;4899;42.644;23.366;2023-05-23T14:07:22;3.22;;;3.03;;
9720;SDS011;4899;42.644;23.366;2023-05-23T14:09:48;4.10;;;2.65;;
9720;SDS011;4899;42.644;23.366;2023-05-23T14:12:13;3.50;;;2.72;;
9720;SDS011;4899;42.644;23.366;2023-05-23T14:14:39;3.20;;;2.90;;
9720;SDS011;4899;42.644;23.366;2023-05-23T14:17:04;3.13;;;2.78;;
9720;SDS011;4899;42.644;23.366;2023-05-23T14:19:30;2.92;;;2.72;;
9720;SDS011;4899;42.644;23.366;2023-05-23T14:21:55;4.40;;;2.47;;
9720;SDS011;4899;42.644;23.366;2023-05-23T14:24:20;3.47;;;3.00;;
9720;SDS011;4899;42.644;23.366;2023-05-23T14:26:46;2.90;;;2.70;;
9720;SDS011;4899;42.644;23.366;2023-05-23T14:29:11;3.70;;;2.90;;
9720;SDS011;4899;42.644;23.366;2023-05-23T14:31:37;4.75;;;3.03;;
9720;SDS011;4899;42.644;23.366;2023-05-23T14:34:02;2.88;;;2.67;;
9720;SDS011;4899;42.644;23.366;2023-05-23T14:36:28;5.00;;;2.92;;
9720;SDS011;4899;42.644;23.366;2023-05-23T14:38:53;3.53;;;3.20;;
9720;SDS011;4899;42.644;23.366;2023-05-23T14:41:19;3.42;;;3.15;;
9720;SDS011;4899;42.644;23.366;2023-05-23T14:43:45;5.40;;;4.90;;
9720;SDS011;4899;42.644;23.366;2023-05-23T14:46:11;6.10;;;5.50;;
9720;SDS011;4899;42.644;23.366;2023-05-23T14:48:37;3.72;;;3.20;;
9720;SDS011;4899;42.644;23.366;2023-05-23T14:51:03;4.20;;;2.95;;
9720;SDS011;4899;42.644;23.366;2023-05-23T14:53:28;3.10;;;2.90;;
9720;SDS011;4899;42.644;23.366;2023-05-23T14:55:54;3.38;;;3.17;;
9720;SDS011;4899;42.644;23.366;2023-05-23T14:58:20;3.83;;;3.25;;
9720;SDS011;4899;42.644;23.366;2023-05-23T15:00:46;3.83;;;3.50;;
9720;SDS011;4899;42.644;23.366;2023-05-23T15:03:12;12.45;;;11.40;;
9720;SDS011;4899;42.644;23.366;2023-05-23T15:05:38;4.32;;;3.30;;
9720;SDS011;4899;42.644;23.366;2023-05-23T15:08:04;3.45;;;3.25;;